Franciscan 1 — VG2884 — position and weather

sailwx.info

Track history (hours):
 
Tides and Currents Weather Stations Pressure Air Temp Water Temp Dewpoint Dewpoint Depression Visibility Wind Speed Wind Dir Waves Ship Positions

Franciscan 1

Last reported at 2018-Apr-08 19:37 UTC. Time now 2018-Jul-23 17:21 UTC.
Position N 49°07' W 123°21'.
Warning: this ship's position is months out of date.

Length 20 m.

Type: Fishing. MMSI: 316031981.

Date/timePositionNaut miles runAvg speedWind from/ knotsBaromVisibWave heightAir tempDewpointWater temp
2018-Apr-08 19:37N 49°07' W 123°21'65 2.4
2018-Apr-07 16:31N 49°34' W 124°52'0 7.6
2018-Apr-07 16:28N 49°34' W 124°52'4 7.4
2018-Apr-07 15:58N 49°38' W 124°53'4 6.9
2018-Apr-07 15:25N 49°41' W 124°49'4 7.3
2018-Apr-07 14:56N 49°44' W 124°52'4 7.7
2018-Apr-07 14:26N 49°47' W 124°56'4 8.5
2018-Apr-07 14:00N 49°49' W 125°01'4 8.2
2018-Apr-07 13:30N 49°52' W 125°05'4 8.0
2018-Apr-07 12:57N 49°56' W 125°09'4 8.1
2018-Apr-07 12:30N 49°59' W 125°12'4 7.3
2018-Apr-07 12:00N 50°02' W 125°14'4 7.6
2018-Apr-07 11:30N 50°05' W 125°17'3 6.5
2018-Apr-07 10:59N 50°08' W 125°21'4 6.7
2018-Apr-07 10:28N 50°11' W 125°22'83 6.9
2018-Apr-06 22:25N 50°44' W 127°22'3 7.7
2018-Apr-06 22:00N 50°45' W 127°26'2 2.5
2018-Apr-06 21:13N 50°43' W 127°28'0 0.0
2018-Apr-06 20:45N 50°43' W 127°28'2 6.2
2018-Apr-06 20:30N 50°45' W 127°28'4 8.0
2018-Apr-06 19:58N 50°49' W 127°30'3 7.5
2018-Apr-06 19:30N 50°52' W 127°32'3 6.8
2018-Apr-06 19:00N 50°55' W 127°34'4 7.1
2018-Apr-06 18:30N 50°59' W 127°36'3 7.0
2018-Apr-06 18:00N 51°01' W 127°40'4 7.2
2018-Apr-06 17:24N 51°04' W 127°44'3 7.0
2018-Apr-06 16:59N 51°07' W 127°47'26 0.7
2018-Apr-05 02:07N 51°33' W 127°52'1 8.9
2018-Apr-05 01:58N 51°34' W 127°52'4 8.8
2018-Apr-05 01:30N 51°38' W 127°53'4 8.6
2018-Apr-05 01:00N 51°42' W 127°54'4 8.5
2018-Apr-05 00:30N 51°47' W 127°55'4 8.5
2018-Apr-05 00:00N 51°51' W 127°55'4 8.3
2018-Apr-04 23:30N 51°55' W 127°56'5 8.5
2018-Apr-04 22:55N 51°60' W 127°56'6 6.3
2018-Apr-04 21:55N 52°05' W 128°03'3 7.6
2018-Apr-04 21:30N 52°06' W 128°07'126 7.2
2018-Apr-04 04:02N 53°51' W 130°02'0 7.6
2018-Apr-04 03:59N 53°51' W 130°03'4 7.8
2018-Apr-04 03:30N 53°54' W 130°08'4 7.4
2018-Apr-04 03:00N 53°55' W 130°14'4 7.8
2018-Apr-04 02:28N 53°51' W 130°18'  
Track history (hours):
 
Tides and Currents Weather Stations Pressure Air Temp Water Temp Dewpoint Dewpoint Depression Visibility Wind Speed Wind Dir Waves Ship Positions

Franciscan 1

Last reported at 2018-Apr-08 19:37 UTC. Time now 2018-Jul-23 17:21 UTC.
Position N 49°07' W 123°21'.
Warning: this ship's position is months out of date.

Length 20 m.

Type: Fishing. MMSI: 316031981.

Date/timePositionNaut miles runAvg speedWind from/ knotsBaromVisibWave heightAir tempDewpointWater temp
2018-Apr-08 19:37N 49°07' W 123°21'65 2.4
2018-Apr-07 16:31N 49°34' W 124°52'0 7.6
2018-Apr-07 16:28N 49°34' W 124°52'4 7.4
2018-Apr-07 15:58N 49°38' W 124°53'4 6.9
2018-Apr-07 15:25N 49°41' W 124°49'4 7.3
2018-Apr-07 14:56N 49°44' W 124°52'4 7.7
2018-Apr-07 14:26N 49°47' W 124°56'4 8.5
2018-Apr-07 14:00N 49°49' W 125°01'4 8.2
2018-Apr-07 13:30N 49°52' W 125°05'4 8.0
2018-Apr-07 12:57N 49°56' W 125°09'4 8.1
2018-Apr-07 12:30N 49°59' W 125°12'4 7.3
2018-Apr-07 12:00N 50°02' W 125°14'4 7.6
2018-Apr-07 11:30N 50°05' W 125°17'3 6.5
2018-Apr-07 10:59N 50°08' W 125°21'4 6.7
2018-Apr-07 10:28N 50°11' W 125°22'83 6.9
2018-Apr-06 22:25N 50°44' W 127°22'3 7.7
2018-Apr-06 22:00N 50°45' W 127°26'2 2.5
2018-Apr-06 21:13N 50°43' W 127°28'0 0.0
2018-Apr-06 20:45N 50°43' W 127°28'2 6.2
2018-Apr-06 20:30N 50°45' W 127°28'4 8.0
2018-Apr-06 19:58N 50°49' W 127°30'3 7.5
2018-Apr-06 19:30N 50°52' W 127°32'3 6.8
2018-Apr-06 19:00N 50°55' W 127°34'4 7.1
2018-Apr-06 18:30N 50°59' W 127°36'3 7.0
2018-Apr-06 18:00N 51°01' W 127°40'4 7.2
2018-Apr-06 17:24N 51°04' W 127°44'3 7.0
2018-Apr-06 16:59N 51°07' W 127°47'26 0.7
2018-Apr-05 02:07N 51°33' W 127°52'1 8.9
2018-Apr-05 01:58N 51°34' W 127°52'4 8.8
2018-Apr-05 01:30N 51°38' W 127°53'4 8.6
2018-Apr-05 01:00N 51°42' W 127°54'4 8.5
2018-Apr-05 00:30N 51°47' W 127°55'4 8.5
2018-Apr-05 00:00N 51°51' W 127°55'4 8.3
2018-Apr-04 23:30N 51°55' W 127°56'5 8.5
2018-Apr-04 22:55N 51°60' W 127°56'6 6.3
2018-Apr-04 21:55N 52°05' W 128°03'3 7.6
2018-Apr-04 21:30N 52°06' W 128°07'126 7.2
2018-Apr-04 04:02N 53°51' W 130°02'0 7.6
2018-Apr-04 03:59N 53°51' W 130°03'4 7.8
2018-Apr-04 03:30N 53°54' W 130°08'4 7.4
2018-Apr-04 03:00N 53°55' W 130°14'4 7.8
2018-Apr-04 02:28N 53°51' W 130°18'  

Dump ship's entire track history